Strona główna
METAR-TAF:

METAR-TAF

Lotnisko :

Port lotniczy Ateny

Ateny, Grecja

Szerokość geograficzna: 37-56N, Długość geograficzna: 023-56E, wysokość: 94 m

Aktualna obserwacja pogody

Raport powstał 33 minut temu, godzina 01:50 UTC
Wiatr 1 kt z kierunków zmiennych
Temperatura 1°C
Wilgotność 55%
Ciśnienie 1012 hPa
Widzialność 10 km lub więcej
Brak chmur poniżej 1500 m i brak chmur cumulonimbus

METAR: LGAV 280150Z VRB01KT CAVOK 01/M07 Q1012 NOSIG

czas: 04:23 (02:23 UTC)

Prognoza

Raport powstał 3 godziny i 23 minut temu, godzina 23:00 UTC
Prognoza ważna od 28 godzina 00 UTC do 28 godzina 24 UTC
Wiatr 10 kt od północno-północny zachód
Widzialność 10 km lub więcej
Mało chmury na wysokości 2000 ft
Stopniowe zmiany
od 28 godzina 16 UTC do 28 godzina 18 UTC
Wiatr 5 kt z kierunków zmiennych

TAF: LGAV 272300Z 2800/2824 34010KT 9999 FEW020 BECMG 2816/2818 VRB05KT

Obserwacja i prognoza pogody dla ponad 4000 lotnisk (raport METAR i TAF).

Dostępne stacje oznaczono żółtymi i czerwonymi punktami na mapie.

Najedź kursorem aby zobaczyć nazwę stacji.

Kliknij aby zobaczyć obserwacje i prognozy pogody.

Aby zmienić mapę: kliknij na zielony przycisk z czarnym krzyżykiem, aby powiększyć; na zielony przycisk z myślnikiem, aby pomniejszyć; na zielone strzałki, aby przejść do map sąsiednich.


METAR-TAF: